AirNav   Everest Fuels
 
 1129 users online  

13XS Presbyterian Hospital of Rockwall Heliport
Rockwall, Texas, USA

GOING TO ROCKWALL?


FAA INFORMATION EFFECTIVE 22 APRIL 2021

Location

FAA Identifier: 13XS
Lat/Long: 32-53-04.0000N 096-27-52.0000W
32-53.066667N 096-27.866667W
32.8844444,-96.4644444
(estimated)
Elevation: 532 ft. / 162 m (estimated)
From city: 3 miles N of ROCKWALL, TX
Time zone: UTC -5 (UTC -6 during Standard Time)
Zip code: 75087

Heliport Operations

Heliport use: Private use, MEDICAL USE.
Activation date: 10/2007
Control tower: no
ARTCC: FORT WORTH CENTER
FSS: FORT WORTH FLIGHT SERVICE STATION
Attendance: UNATNDD
Wind indicator: lighted
Segmented circle: no
Lights: SS-SR
Beacon: white-green-yellow (heliport)
Operates sunset to sunrise.

Heliport Communications

WX AWOS-3 at F46 (3 nm NE): 121.25 (972-772-6699)
WX AWOS-3 at HQZ (9 nm S): 118.175 (972-222-7631)
WX ASOS at TRL (15 nm SE): 119.275 (972-551-1334)
WX AWOS-3 at 49T (18 nm W): 135.425 (214-670-1243)
WX ASOS at TKI (19 nm N): 119.925 (972-548-8525)
WX AWOS-3 at ADS (19 nm W): PHONE 972-386-4855
WX ASOS at DAL (20 nm W): PHONE 214-353-1551

Nearby radio navigation aids

VOR radial/distance  VOR name  Freq  Var
CVEr085/22.1COWBOY VOR/DME116.2006E
TTTr082/29.0MAVERICK VOR/DME113.1006E
FUZr084/36.0RANGER VORTAC115.7006E

 
NDB name  Hdg/Dist  Freq  Var  ID
MESQUITE033/5.624803EPQF .--. --.- ..-.
TRAVIS298/13.226006EAVZ .- ...- --..

Heliport Services

Runway Information

Helipad H1

Dimensions: 48 x 48 ft. / 15 x 15 m
Surface: concrete, in good condition
Runway edge lights: PERI
Traffic pattern: leftleft

Heliport Ownership and Management from official FAA records

Ownership: Privately-owned
Owner: PRESBYTERIAN HOSPITAL OF ROCKWALL
3150 HORIZON RD
ROCKWALL, TX 75032
Phone 469-698-1778
Manager: ROCKWALL REGIONAL HOSPITAL
3150 HORIZON RD
ROCKWALL, TX 75032
Phone 469-698-1778

Additional Remarks

A52-H1 30 FT PLINE (MKD) 280 FT S & E OF LNDG AREA; 15 FT TREES 120 FT FM LNDG AREA IN ALL DIRECTIONS.
FOR CD CTC REGIONAL APCH AT 972-615-2799.

Instrument Procedures

There are no published instrument procedures at 13XS.

Some nearby airports with instrument procedures:

F46 - Ralph M Hall/Rockwall Municipal Airport (3 nm NE)
KHQZ - Mesquite Metro Airport (9 nm S)
7F3 - Caddo Mills Municipal Airport (14 nm NE)
KTRL - Terrell Municipal Airport (15 nm SE)
KTKI - McKinney NTL Airport (19 nm N)
KADS - Addison Airport (19 nm W)
KDAL - Dallas Love Field Airport (20 nm W)
 
Loc | Ops | Rwys | IFR | FBO | Links
Com | Nav | Svcs | Stats | Notes

City of Fort Worth
 
Aerial photo
No photo
 
Sectional chart

 
Airport distance calculator
Flying to Presbyterian Hospital of Rockwall Heliport? Find the distance to fly.

From to 13XS

Sunrise and sunset
Times for 16-May-2021
 Local
(UTC-5)
 Zulu
(UTC)
Morning civil twilight06:0011:00
Sunrise06:2711:27
Sunset20:1701:17
Evening civil twilight20:4501:45

Current date and time
Zulu (UTC)  16-May-2021 19:10:27
Local (UTC-5)  16-May-2021 14:10:27
 
METAR
KF46 
3nm NE 
161855Z AUTO 14010G14KT 2SM +RA BKN008 BKN018 OVC025 20/20 A2998 RMK AO2 LTG DSNT E P0055 T01990199
KHQZ 
9nm S 
161850Z 10008KT 2 1/2SM RA BR OVC009 20/20 A2996
KTRL 
14nm SE 
161853Z AUTO 12007KT 4SM RA BR FEW009 BKN055 OVC075 21/21 A2997 RMK AO2 SLP145 P0024 T02060206
KADS 
18nm W 
161851Z 07006KT 1 1/4SM +RA BKN006 BKN017 OVC022 21/20 A2996 RMK VCTS LTG VC DSNT S
KTKI 
19nm N 
161900Z 13009KT 1 1/4SM VCTS +RA BR BKN006 BKN010 OVC031 21/19 A2997 RMK AO2 LTG DSNT SW P0005 T02060194
KDAL 
20nm W 
161901Z 29010KT 1/4SM R13L/0800V2600FT TSRA BR OVC006CB 21/19 A2995 RMK AO2 TSB1856 OCNL LTGIC TS OHD MOV NE P0026 T02060194 $
TAF
KDAL 
20nm W 
161747Z 1618/1718 15011KT 5SM -SHRA VCTS OVC012CB TEMPO 1618/1619 2SM +RA OVC008 FM162000 15015KT 6SM -SHRA OVC012 FM162200 14012KT 6SM BR OVC010 FM170500 16011KT 5SM BR OVC008 FM171100 17011KT 6SM BR VCTS OVC015CB TEMPO 1712/1715 3SM +TSRA
NOTAMs
Click for the latest NOTAMs
NOTAMs are issued by the DoD/FAA and will open in a separate window not controlled by AirNav.

 

 
 

Would you like to see your business listed on this page?

 If your business provides an interesting product or service to pilots, flight crews, aircraft, or users of the Presbyterian Hospital of Rockwall Heliport, you should consider listing it here.  To start the listing process, click on the button below
 
Add a business
 

Other Pages about Presbyterian Hospital of Rockwall Heliport

Update a link
 
Copyright © AirNav, LLC. All rights reserved. Privacy Policy  Contact